sensor_id;sensor_type;location;lat;lon;timestamp;P1;durP1;ratioP1;P2;durP2;ratioP2
64361;SDS011;50685;53.346;-6.296;2023-04-22T00:00:56;33.85;;;11.95;;
64361;SDS011;50685;53.346;-6.296;2023-04-22T00:03:25;32.30;;;12.35;;
64361;SDS011;50685;53.346;-6.296;2023-04-22T00:05:51;23.10;;;11.73;;
64361;SDS011;50685;53.346;-6.296;2023-04-22T00:08:17;31.65;;;11.45;;
64361;SDS011;50685;53.346;-6.296;2023-04-22T00:10:43;28.13;;;12.52;;
64361;SDS011;50685;53.346;-6.296;2023-04-22T00:13:08;29.90;;;11.68;;
64361;SDS011;50685;53.346;-6.296;2023-04-22T00:15:34;26.75;;;11.90;;
64361;SDS011;50685;53.346;-6.296;2023-04-22T00:17:59;20.88;;;11.10;;
64361;SDS011;50685;53.346;-6.296;2023-04-22T00:20:28;26.17;;;12.15;;
64361;SDS011;50685;53.346;-6.296;2023-04-22T00:22:53;28.63;;;11.68;;
64361;SDS011;50685;53.346;-6.296;2023-04-22T00:25:19;22.05;;;11.32;;
64361;SDS011;50685;53.346;-6.296;2023-04-22T00:27:46;22.33;;;10.35;;
64361;SDS011;50685;53.346;-6.296;2023-04-22T00:30:12;30.00;;;11.18;;
64361;SDS011;50685;53.346;-6.296;2023-04-22T00:32:37;22.75;;;8.75;;
64361;SDS011;50685;53.346;-6.296;2023-04-22T00:35:03;23.80;;;8.75;;
64361;SDS011;50685;53.346;-6.296;2023-04-22T00:37:29;27.33;;;8.98;;
64361;SDS011;50685;53.346;-6.296;2023-04-22T00:39:55;22.30;;;9.10;;
64361;SDS011;50685;53.346;-6.296;2023-04-22T00:42:22;25.85;;;9.57;;
64361;SDS011;50685;53.346;-6.296;2023-04-22T00:44:47;28.40;;;9.48;;
64361;SDS011;50685;53.346;-6.296;2023-04-22T00:47:18;28.55;;;9.30;;
64361;SDS011;50685;53.346;-6.296;2023-04-22T00:49:44;22.38;;;9.48;;
64361;SDS011;50685;53.346;-6.296;2023-04-22T00:52:11;23.58;;;9.98;;
64361;SDS011;50685;53.346;-6.296;2023-04-22T00:54:36;22.92;;;10.52;;
64361;SDS011;50685;53.346;-6.296;2023-04-22T00:57:02;16.83;;;9.40;;
64361;SDS011;50685;53.346;-6.296;2023-04-22T00:59:29;30.17;;;10.77;;
64361;SDS011;50685;53.346;-6.296;2023-04-22T01:01:55;23.83;;;9.77;;
64361;SDS011;50685;53.346;-6.296;2023-04-22T01:04:22;23.30;;;11.38;;
64361;SDS011;50685;53.346;-6.296;2023-04-22T01:06:47;25.98;;;10.68;;
64361;SDS011;50685;53.346;-6.296;2023-04-22T01:09:20;18.98;;;10.70;;
64361;SDS011;50685;53.346;-6.296;2023-04-22T01:11:49;31.80;;;11.40;;
64361;SDS011;50685;53.346;-6.296;2023-04-22T01:14:15;25.75;;;11.45;;
64361;SDS011;50685;53.346;-6.296;2023-04-22T01:16:50;29.83;;;11.45;;
64361;SDS011;50685;53.346;-6.296;2023-04-22T01:19:18;23.38;;;11.98;;
64361;SDS011;50685;53.346;-6.296;2023-04-22T01:21:52;27.92;;;13.55;;
64361;SDS011;50685;53.346;-6.296;2023-04-22T01:24:18;24.00;;;11.90;;
64361;SDS011;50685;53.346;-6.296;2023-04-22T01:26:44;24.38;;;11.05;;
64361;SDS011;50685;53.346;-6.296;2023-04-22T01:29:11;27.08;;;11.80;;
64361;SDS011;50685;53.346;-6.296;2023-04-22T01:31:40;21.77;;;11.40;;
64361;SDS011;50685;53.346;-6.296;2023-04-22T01:34:06;28.05;;;12.95;;
64361;SDS011;50685;53.346;-6.296;2023-04-22T01:36:32;28.92;;;12.38;;
64361;SDS011;50685;53.346;-6.296;2023-04-22T01:38:58;32.22;;;11.32;;
64361;SDS011;50685;53.346;-6.296;2023-04-22T01:41:24;25.73;;;11.55;;
64361;SDS011;50685;53.346;-6.296;2023-04-22T01:43:53;30.30;;;13.35;;
64361;SDS011;50685;53.346;-6.296;2023-04-22T01:46:23;20.95;;;11.38;;
64361;SDS011;50685;53.346;-6.296;2023-04-22T01:48:48;25.20;;;12.43;;
64361;SDS011;50685;53.346;-6.296;2023-04-22T01:51:17;20.30;;;11.88;;
64361;SDS011;50685;53.346;-6.296;2023-04-22T01:53:46;29.10;;;13.18;;
64361;SDS011;50685;53.346;-6.296;2023-04-22T01:56:12;24.90;;;12.90;;
64361;SDS011;50685;53.346;-6.296;2023-04-22T01:58:38;32.50;;;13.40;;
64361;SDS011;50685;53.346;-6.296;2023-04-22T02:01:04;29.90;;;12.25;;
64361;SDS011;50685;53.346;-6.296;2023-04-22T02:03:31;28.45;;;12.95;;
64361;SDS011;50685;53.346;-6.296;2023-04-22T02:05:56;27.20;;;13.77;;
64361;SDS011;50685;53.346;-6.296;2023-04-22T02:08:22;24.83;;;12.50;;
64361;SDS011;50685;53.346;-6.296;2023-04-22T02:10:47;26.77;;;13.25;;
64361;SDS011;50685;53.346;-6.296;2023-04-22T02:13:13;33.60;;;13.73;;
64361;SDS011;50685;53.346;-6.296;2023-04-22T02:15:38;20.17;;;12.32;;
64361;SDS011;50685;53.346;-6.296;2023-04-22T02:18:05;28.40;;;13.25;;
64361;SDS011;50685;53.346;-6.296;2023-04-22T02:20:32;34.17;;;13.15;;
64361;SDS011;50685;53.346;-6.296;2023-04-22T02:22:58;30.35;;;14.52;;
64361;SDS011;50685;53.346;-6.296;2023-04-22T02:25:23;31.45;;;13.45;;
64361;SDS011;50685;53.346;-6.296;2023-04-22T02:27:49;26.50;;;12.38;;
64361;SDS011;50685;53.346;-6.296;2023-04-22T02:30:14;27.73;;;13.38;;
64361;SDS011;50685;53.346;-6.296;2023-04-22T02:32:40;35.70;;;13.90;;
64361;SDS011;50685;53.346;-6.296;2023-04-22T02:35:06;34.67;;;13.95;;
64361;SDS011;50685;53.346;-6.296;2023-04-22T02:37:31;32.95;;;14.45;;
64361;SDS011;50685;53.346;-6.296;2023-04-22T02:39:57;32.65;;;13.30;;
64361;SDS011;50685;53.346;-6.296;2023-04-22T02:42:22;26.40;;;12.25;;
64361;SDS011;50685;53.346;-6.296;2023-04-22T02:44:48;38.72;;;14.05;;
64361;SDS011;50685;53.346;-6.296;2023-04-22T02:47:13;30.60;;;14.38;;
64361;SDS011;50685;53.346;-6.296;2023-04-22T02:49:39;34.42;;;13.60;;
64361;SDS011;50685;53.346;-6.296;2023-04-22T02:52:05;30.45;;;15.20;;
64361;SDS011;50685;53.346;-6.296;2023-04-22T02:54:31;26.73;;;13.43;;
64361;SDS011;50685;53.346;-6.296;2023-04-22T02:56:56;28.10;;;12.07;;
64361;SDS011;50685;53.346;-6.296;2023-04-22T02:59:22;28.83;;;12.70;;
64361;SDS011;50685;53.346;-6.296;2023-04-22T03:01:48;30.00;;;13.93;;
64361;SDS011;50685;53.346;-6.296;2023-04-22T03:04:13;27.92;;;12.95;;
64361;SDS011;50685;53.346;-6.296;2023-04-22T03:06:39;22.35;;;12.18;;
64361;SDS011;50685;53.346;-6.296;2023-04-22T03:09:14;31.17;;;12.77;;
64361;SDS011;50685;53.346;-6.296;2023-04-22T03:11:42;27.75;;;12.50;;
64361;SDS011;50685;53.346;-6.296;2023-04-22T03:14:08;27.45;;;12.85;;
64361;SDS011;50685;53.346;-6.296;2023-04-22T03:16:34;34.63;;;13.70;;
64361;SDS011;50685;53.346;-6.296;2023-04-22T03:19:00;22.90;;;13.38;;
64361;SDS011;50685;53.346;-6.296;2023-04-22T03:21:26;31.67;;;14.48;;
64361;SDS011;50685;53.346;-6.296;2023-04-22T03:23:52;26.63;;;12.23;;
64361;SDS011;50685;53.346;-6.296;2023-04-22T03:26:18;28.50;;;13.15;;
64361;SDS011;50685;53.346;-6.296;2023-04-22T03:28:44;26.58;;;13.27;;
64361;SDS011;50685;53.346;-6.296;2023-04-22T03:31:09;27.33;;;13.35;;
64361;SDS011;50685;53.346;-6.296;2023-04-22T03:33:35;27.80;;;13.07;;
64361;SDS011;50685;53.346;-6.296;2023-04-22T03:36:00;27.30;;;13.32;;
64361;SDS011;50685;53.346;-6.296;2023-04-22T03:38:26;28.45;;;12.95;;
64361;SDS011;50685;53.346;-6.296;2023-04-22T03:40:51;21.52;;;11.68;;
64361;SDS011;50685;53.346;-6.296;2023-04-22T03:43:17;23.60;;;12.80;;
64361;SDS011;50685;53.346;-6.296;2023-04-22T03:45:43;32.88;;;12.45;;
64361;SDS011;50685;53.346;-6.296;2023-04-22T03:48:09;32.35;;;12.52;;
64361;SDS011;50685;53.346;-6.296;2023-04-22T03:50:34;22.83;;;11.65;;
64361;SDS011;50685;53.346;-6.296;2023-04-22T03:53:00;27.98;;;12.23;;
64361;SDS011;50685;53.346;-6.296;2023-04-22T03:55:25;23.60;;;10.88;;
64361;SDS011;50685;53.346;-6.296;2023-04-22T03:57:51;19.63;;;11.50;;
64361;SDS011;50685;53.346;-6.296;2023-04-22T04:00:16;22.92;;;11.73;;
64361;SDS011;50685;53.346;-6.296;2023-04-22T04:02:42;19.80;;;10.68;;
64361;SDS011;50685;53.346;-6.296;2023-04-22T04:05:07;24.92;;;12.07;;
64361;SDS011;50685;53.346;-6.296;2023-04-22T04:07:36;25.73;;;11.30;;
64361;SDS011;50685;53.346;-6.296;2023-04-22T04:10:02;22.45;;;11.70;;
64361;SDS011;50685;53.346;-6.296;2023-04-22T04:12:28;28.58;;;12.07;;
64361;SDS011;50685;53.346;-6.296;2023-04-22T04:14:54;28.02;;;11.20;;
64361;SDS011;50685;53.346;-6.296;2023-04-22T04:17:19;30.42;;;12.50;;
64361;SDS011;50685;53.346;-6.296;2023-04-22T04:19:45;26.25;;;11.70;;
64361;SDS011;50685;53.346;-6.296;2023-04-22T04:22:11;39.35;;;13.63;;
64361;SDS011;50685;53.346;-6.296;2023-04-22T04:24:37;31.20;;;12.88;;
64361;SDS011;50685;53.346;-6.296;2023-04-22T04:27:06;32.45;;;13.05;;
64361;SDS011;50685;53.346;-6.296;2023-04-22T04:29:32;33.90;;;12.88;;
64361;SDS011;50685;53.346;-6.296;2023-04-22T04:31:58;30.23;;;12.30;;
64361;SDS011;50685;53.346;-6.296;2023-04-22T04:34:24;31.30;;;13.10;;
64361;SDS011;50685;53.346;-6.296;2023-04-22T04:36:49;28.98;;;12.75;;
64361;SDS011;50685;53.346;-6.296;2023-04-22T04:39:15;21.35;;;12.07;;
64361;SDS011;50685;53.346;-6.296;2023-04-22T04:41:44;30.48;;;12.65;;
64361;SDS011;50685;53.346;-6.296;2023-04-22T04:44:10;26.42;;;13.02;;
64361;SDS011;50685;53.346;-6.296;2023-04-22T04:46:36;26.05;;;12.90;;
64361;SDS011;50685;53.346;-6.296;2023-04-22T04:49:02;34.10;;;13.98;;
64361;SDS011;50685;53.346;-6.296;2023-04-22T04:51:33;33.00;;;13.38;;
64361;SDS011;50685;53.346;-6.296;2023-04-22T04:53:59;25.88;;;12.75;;
64361;SDS011;50685;53.346;-6.296;2023-04-22T04:56:24;24.15;;;13.48;;
64361;SDS011;50685;53.346;-6.296;2023-04-22T04:58:50;29.42;;;12.52;;
64361;SDS011;50685;53.346;-6.296;2023-04-22T05:01:15;40.63;;;13.57;;
64361;SDS011;50685;53.346;-6.296;2023-04-22T05:03:41;36.40;;;14.02;;
64361;SDS011;50685;53.346;-6.296;2023-04-22T05:06:06;28.75;;;13.70;;
64361;SDS011;50685;53.346;-6.296;2023-04-22T05:08:32;36.78;;;14.95;;
64361;SDS011;50685;53.346;-6.296;2023-04-22T05:10:58;28.75;;;12.98;;
64361;SDS011;50685;53.346;-6.296;2023-04-22T05:13:23;30.13;;;13.50;;
64361;SDS011;50685;53.346;-6.296;2023-04-22T05:15:50;25.08;;;12.32;;
64361;SDS011;50685;53.346;-6.296;2023-04-22T05:18:16;26.10;;;12.80;;
64361;SDS011;50685;53.346;-6.296;2023-04-22T05:20:42;39.17;;;13.75;;
64361;SDS011;50685;53.346;-6.296;2023-04-22T05:23:07;39.33;;;13.23;;
64361;SDS011;50685;53.346;-6.296;2023-04-22T05:25:33;40.22;;;14.10;;
64361;SDS011;50685;53.346;-6.296;2023-04-22T05:27:58;25.85;;;12.18;;
64361;SDS011;50685;53.346;-6.296;2023-04-22T05:30:24;22.67;;;12.95;;
64361;SDS011;50685;53.346;-6.296;2023-04-22T05:32:49;30.88;;;12.10;;
64361;SDS011;50685;53.346;-6.296;2023-04-22T05:35:15;28.92;;;12.70;;
64361;SDS011;50685;53.346;-6.296;2023-04-22T05:37:41;25.65;;;12.10;;
64361;SDS011;50685;53.346;-6.296;2023-04-22T05:40:06;26.55;;;10.43;;
64361;SDS011;50685;53.346;-6.296;2023-04-22T05:42:33;30.63;;;11.15;;
64361;SDS011;50685;53.346;-6.296;2023-04-22T05:44:58;37.45;;;12.23;;
64361;SDS011;50685;53.346;-6.296;2023-04-22T05:47:24;21.35;;;8.60;;
64361;SDS011;50685;53.346;-6.296;2023-04-22T05:49:50;23.70;;;11.10;;
64361;SDS011;50685;53.346;-6.296;2023-04-22T05:52:15;23.15;;;9.98;;
64361;SDS011;50685;53.346;-6.296;2023-04-22T05:54:42;31.13;;;11.27;;
64361;SDS011;50685;53.346;-6.296;2023-04-22T05:57:08;21.58;;;11.10;;
64361;SDS011;50685;53.346;-6.296;2023-04-22T05:59:33;25.27;;;11.60;;
64361;SDS011;50685;53.346;-6.296;2023-04-22T06:01:59;31.80;;;12.07;;
64361;SDS011;50685;53.346;-6.296;2023-04-22T06:04:24;26.85;;;10.93;;
64361;SDS011;50685;53.346;-6.296;2023-04-22T06:06:52;29.15;;;10.23;;
64361;SDS011;50685;53.346;-6.296;2023-04-22T06:09:18;30.13;;;11.82;;
64361;SDS011;50685;53.346;-6.296;2023-04-22T06:11:45;23.60;;;10.98;;
64361;SDS011;50685;53.346;-6.296;2023-04-22T06:14:10;33.55;;;12.82;;
64361;SDS011;50685;53.346;-6.296;2023-04-22T06:16:37;28.90;;;11.80;;
64361;SDS011;50685;53.346;-6.296;2023-04-22T06:19:05;20.75;;;11.60;;
64361;SDS011;50685;53.346;-6.296;2023-04-22T06:21:31;36.10;;;11.15;;
64361;SDS011;50685;53.346;-6.296;2023-04-22T06:23:58;23.08;;;10.98;;
64361;SDS011;50685;53.346;-6.296;2023-04-22T06:26:24;23.05;;;11.50;;
64361;SDS011;50685;53.346;-6.296;2023-04-22T06:28:50;21.55;;;9.68;;
64361;SDS011;50685;53.346;-6.296;2023-04-22T06:31:15;25.15;;;9.57;;
64361;SDS011;50685;53.346;-6.296;2023-04-22T06:33:41;17.05;;;8.48;;
64361;SDS011;50685;53.346;-6.296;2023-04-22T06:36:06;23.50;;;8.57;;
64361;SDS011;50685;53.346;-6.296;2023-04-22T06:38:32;19.27;;;8.90;;
64361;SDS011;50685;53.346;-6.296;2023-04-22T06:40:58;20.02;;;8.13;;
64361;SDS011;50685;53.346;-6.296;2023-04-22T06:43:23;18.48;;;7.40;;
64361;SDS011;50685;53.346;-6.296;2023-04-22T06:45:49;22.45;;;7.50;;
64361;SDS011;50685;53.346;-6.296;2023-04-22T06:48:15;12.35;;;7.32;;
64361;SDS011;50685;53.346;-6.296;2023-04-22T06:50:40;17.85;;;7.20;;
64361;SDS011;50685;53.346;-6.296;2023-04-22T06:53:06;16.95;;;8.05;;
64361;SDS011;50685;53.346;-6.296;2023-04-22T06:55:31;17.08;;;7.53;;
64361;SDS011;50685;53.346;-6.296;2023-04-22T06:57:57;20.00;;;8.07;;
64361;SDS011;50685;53.346;-6.296;2023-04-22T07:00:22;20.20;;;7.90;;
64361;SDS011;50685;53.346;-6.296;2023-04-22T07:02:49;11.38;;;6.40;;
64361;SDS011;50685;53.346;-6.296;2023-04-22T07:05:15;9.90;;;5.85;;
64361;SDS011;50685;53.346;-6.296;2023-04-22T07:07:40;16.38;;;7.13;;
64361;SDS011;50685;53.346;-6.296;2023-04-22T07:10:06;15.90;;;7.30;;
64361;SDS011;50685;53.346;-6.296;2023-04-22T07:12:35;17.70;;;7.30;;
64361;SDS011;50685;53.346;-6.296;2023-04-22T07:15:02;14.90;;;6.20;;
64361;SDS011;50685;53.346;-6.296;2023-04-22T07:17:27;11.93;;;6.45;;
64361;SDS011;50685;53.346;-6.296;2023-04-22T07:19:53;14.30;;;6.90;;
64361;SDS011;50685;53.346;-6.296;2023-04-22T07:22:19;13.70;;;7.18;;
64361;SDS011;50685;53.346;-6.296;2023-04-22T07:24:44;20.25;;;8.07;;
64361;SDS011;50685;53.346;-6.296;2023-04-22T07:27:10;23.40;;;8.98;;
64361;SDS011;50685;53.346;-6.296;2023-04-22T07:29:35;13.60;;;7.05;;
64361;SDS011;50685;53.346;-6.296;2023-04-22T07:32:01;12.80;;;6.78;;
64361;SDS011;50685;53.346;-6.296;2023-04-22T07:34:26;13.63;;;7.07;;
64361;SDS011;50685;53.346;-6.296;2023-04-22T07:36:55;19.85;;;7.22;;
64361;SDS011;50685;53.346;-6.296;2023-04-22T07:39:21;22.48;;;7.05;;
64361;SDS011;50685;53.346;-6.296;2023-04-22T07:41:46;15.00;;;6.72;;
64361;SDS011;50685;53.346;-6.296;2023-04-22T07:44:15;14.13;;;6.70;;
64361;SDS011;50685;53.346;-6.296;2023-04-22T07:46:45;13.80;;;6.97;;
64361;SDS011;50685;53.346;-6.296;2023-04-22T07:49:11;18.58;;;7.82;;
64361;SDS011;50685;53.346;-6.296;2023-04-22T07:51:38;20.77;;;7.70;;
64361;SDS011;50685;53.346;-6.296;2023-04-22T07:54:04;14.75;;;6.65;;
64361;SDS011;50685;53.346;-6.296;2023-04-22T07:56:29;10.63;;;6.70;;
64361;SDS011;50685;53.346;-6.296;2023-04-22T07:58:55;12.00;;;6.82;;
64361;SDS011;50685;53.346;-6.296;2023-04-22T08:01:20;14.18;;;5.32;;
64361;SDS011;50685;53.346;-6.296;2023-04-22T08:03:46;13.07;;;5.22;;
64361;SDS011;50685;53.346;-6.296;2023-04-22T08:06:11;10.43;;;3.58;;
64361;SDS011;50685;53.346;-6.296;2023-04-22T08:08:37;9.15;;;3.78;;
64361;SDS011;50685;53.346;-6.296;2023-04-22T08:11:02;12.45;;;2.88;;
64361;SDS011;50685;53.346;-6.296;2023-04-22T08:13:28;6.20;;;2.90;;
64361;SDS011;50685;53.346;-6.296;2023-04-22T08:15:54;9.05;;;3.83;;
64361;SDS011;50685;53.346;-6.296;2023-04-22T08:18:19;10.18;;;3.45;;
64361;SDS011;50685;53.346;-6.296;2023-04-22T08:20:46;10.48;;;4.13;;
64361;SDS011;50685;53.346;-6.296;2023-04-22T08:23:12;8.18;;;3.10;;
64361;SDS011;50685;53.346;-6.296;2023-04-22T08:25:37;9.65;;;3.35;;
64361;SDS011;50685;53.346;-6.296;2023-04-22T08:28:03;9.32;;;3.45;;
64361;SDS011;50685;53.346;-6.296;2023-04-22T08:30:28;8.88;;;3.20;;
64361;SDS011;50685;53.346;-6.296;2023-04-22T08:32:54;11.13;;;3.22;;
64361;SDS011;50685;53.346;-6.296;2023-04-22T08:35:19;7.35;;;3.67;;
64361;SDS011;50685;53.346;-6.296;2023-04-22T08:37:45;12.73;;;3.72;;
64361;SDS011;50685;53.346;-6.296;2023-04-22T08:40:11;9.57;;;3.13;;
64361;SDS011;50685;53.346;-6.296;2023-04-22T08:42:37;7.85;;;2.92;;
64361;SDS011;50685;53.346;-6.296;2023-04-22T08:45:04;7.60;;;3.75;;
64361;SDS011;50685;53.346;-6.296;2023-04-22T08:47:30;15.82;;;4.20;;
64361;SDS011;50685;53.346;-6.296;2023-04-22T08:50:00;14.32;;;3.70;;
64361;SDS011;50685;53.346;-6.296;2023-04-22T08:52:31;7.50;;;3.60;;
64361;SDS011;50685;53.346;-6.296;2023-04-22T08:54:59;11.15;;;4.85;;
64361;SDS011;50685;53.346;-6.296;2023-04-22T08:57:25;21.77;;;5.03;;
64361;SDS011;50685;53.346;-6.296;2023-04-22T08:59:51;12.13;;;4.75;;
64361;SDS011;50685;53.346;-6.296;2023-04-22T09:02:19;8.90;;;3.78;;
64361;SDS011;50685;53.346;-6.296;2023-04-22T09:04:46;9.02;;;4.25;;
64361;SDS011;50685;53.346;-6.296;2023-04-22T09:07:31;10.75;;;4.57;;
64361;SDS011;50685;53.346;-6.296;2023-04-22T09:09:58;8.07;;;4.32;;
64361;SDS011;50685;53.346;-6.296;2023-04-22T09:12:24;7.85;;;4.53;;
64361;SDS011;50685;53.346;-6.296;2023-04-22T09:14:50;7.10;;;4.63;;
64361;SDS011;50685;53.346;-6.296;2023-04-22T09:17:16;7.97;;;5.10;;
64361;SDS011;50685;53.346;-6.296;2023-04-22T09:19:45;10.43;;;4.53;;
64361;SDS011;50685;53.346;-6.296;2023-04-22T09:22:21;10.07;;;5.70;;
64361;SDS011;50685;53.346;-6.296;2023-04-22T09:24:50;7.95;;;4.80;;
64361;SDS011;50685;53.346;-6.296;2023-04-22T09:27:16;9.00;;;5.40;;
64361;SDS011;50685;53.346;-6.296;2023-04-22T09:29:48;8.27;;;4.97;;
64361;SDS011;50685;53.346;-6.296;2023-04-22T09:32:18;8.20;;;4.57;;
64361;SDS011;50685;53.346;-6.296;2023-04-22T09:34:53;14.65;;;7.10;;
64361;SDS011;50685;53.346;-6.296;2023-04-22T09:37:20;9.85;;;4.22;;
64361;SDS011;50685;53.346;-6.296;2023-04-22T09:39:49;9.27;;;4.75;;
64361;SDS011;50685;53.346;-6.296;2023-04-22T09:42:18;8.20;;;4.72;;
64361;SDS011;50685;53.346;-6.296;2023-04-22T09:44:45;8.88;;;4.57;;
64361;SDS011;50685;53.346;-6.296;2023-04-22T09:47:12;6.70;;;4.38;;
64361;SDS011;50685;53.346;-6.296;2023-04-22T09:49:38;10.70;;;4.47;;
64361;SDS011;50685;53.346;-6.296;2023-04-22T09:52:04;6.15;;;4.45;;
64361;SDS011;50685;53.346;-6.296;2023-04-22T09:54:30;12.00;;;4.10;;
64361;SDS011;50685;53.346;-6.296;2023-04-22T09:56:56;7.80;;;3.50;;
64361;SDS011;50685;53.346;-6.296;2023-04-22T09:59:23;5.93;;;3.90;;
64361;SDS011;50685;53.346;-6.296;2023-04-22T10:01:59;8.15;;;4.45;;
64361;SDS011;50685;53.346;-6.296;2023-04-22T10:04:28;5.82;;;4.25;;
64361;SDS011;50685;53.346;-6.296;2023-04-22T10:06:55;7.80;;;4.03;;
64361;SDS011;50685;53.346;-6.296;2023-04-22T10:09:22;11.40;;;3.95;;
64361;SDS011;50685;53.346;-6.296;2023-04-22T10:11:49;10.27;;;5.35;;
64361;SDS011;50685;53.346;-6.296;2023-04-22T10:14:16;11.32;;;5.53;;
64361;SDS011;50685;53.346;-6.296;2023-04-22T10:16:44;7.18;;;4.00;;
64361;SDS011;50685;53.346;-6.296;2023-04-22T10:19:13;8.32;;;4.00;;
64361;SDS011;50685;53.346;-6.296;2023-04-22T10:21:42;6.40;;;3.88;;
64361;SDS011;50685;53.346;-6.296;2023-04-22T10:24:14;12.85;;;4.80;;
64361;SDS011;50685;53.346;-6.296;2023-04-22T10:26:49;7.95;;;3.95;;
64361;SDS011;50685;53.346;-6.296;2023-04-22T10:29:19;7.97;;;3.75;;
64361;SDS011;50685;53.346;-6.296;2023-04-22T10:32:03;4.22;;;3.03;;
64361;SDS011;50685;53.346;-6.296;2023-04-22T10:34:35;7.05;;;3.47;;
64361;SDS011;50685;53.346;-6.296;2023-04-22T10:37:08;6.82;;;3.50;;
64361;SDS011;50685;53.346;-6.296;2023-04-22T10:39:36;5.75;;;3.30;;
64361;SDS011;50685;53.346;-6.296;2023-04-22T10:47:32;9.82;;;5.00;;
64361;SDS011;50685;53.346;-6.296;2023-04-22T10:50:17;4.68;;;3.17;;
64361;SDS011;50685;53.346;-6.296;2023-04-22T10:55:20;4.05;;;3.35;;
64361;SDS011;50685;53.346;-6.296;2023-04-22T10:57:46;16.63;;;4.00;;
64361;SDS011;50685;53.346;-6.296;2023-04-22T11:00:20;6.30;;;3.58;;
64361;SDS011;50685;53.346;-6.296;2023-04-22T11:05:29;4.57;;;2.97;;
64361;SDS011;50685;53.346;-6.296;2023-04-22T11:08:01;5.65;;;3.10;;
64361;SDS011;50685;53.346;-6.296;2023-04-22T11:10:33;4.35;;;3.63;;
64361;SDS011;50685;53.346;-6.296;2023-04-22T11:12:59;5.53;;;4.45;;
64361;SDS011;50685;53.346;-6.296;2023-04-22T11:15:31;5.03;;;4.47;;
64361;SDS011;50685;53.346;-6.296;2023-04-22T11:17:58;6.07;;;4.35;;
64361;SDS011;50685;53.346;-6.296;2023-04-22T11:20:24;8.95;;;5.28;;
64361;SDS011;50685;53.346;-6.296;2023-04-22T11:22:51;6.47;;;5.35;;
64361;SDS011;50685;53.346;-6.296;2023-04-22T11:25:18;6.60;;;4.85;;
64361;SDS011;50685;53.346;-6.296;2023-04-22T11:27:45;5.40;;;4.55;;
64361;SDS011;50685;53.346;-6.296;2023-04-22T11:30:12;6.40;;;4.03;;
64361;SDS011;50685;53.346;-6.296;2023-04-22T11:32:46;5.88;;;4.93;;
64361;SDS011;50685;53.346;-6.296;2023-04-22T11:35:14;7.78;;;4.85;;
64361;SDS011;50685;53.346;-6.296;2023-04-22T11:37:45;5.00;;;3.65;;
64361;SDS011;50685;53.346;-6.296;2023-04-22T11:40:19;8.63;;;4.05;;
64361;SDS011;50685;53.346;-6.296;2023-04-22T11:42:47;6.53;;;3.63;;
64361;SDS011;50685;53.346;-6.296;2023-04-22T11:45:13;5.50;;;3.72;;
64361;SDS011;50685;53.346;-6.296;2023-04-22T11:47:40;10.40;;;4.85;;
64361;SDS011;50685;53.346;-6.296;2023-04-22T11:50:09;7.30;;;4.15;;
64361;SDS011;50685;53.346;-6.296;2023-04-22T11:55:09;5.47;;;4.60;;
64361;SDS011;50685;53.346;-6.296;2023-04-22T11:57:37;6.47;;;5.00;;
64361;SDS011;50685;53.346;-6.296;2023-04-22T12:00:03;11.05;;;5.30;;
64361;SDS011;50685;53.346;-6.296;2023-04-22T12:02:31;7.97;;;4.97;;
64361;SDS011;50685;53.346;-6.296;2023-04-22T12:04:57;6.57;;;3.95;;
64361;SDS011;50685;53.346;-6.296;2023-04-22T12:07:25;7.40;;;4.65;;
64361;SDS011;50685;53.346;-6.296;2023-04-22T12:09:54;7.28;;;5.25;;
64361;SDS011;50685;53.346;-6.296;2023-04-22T12:12:24;11.68;;;5.43;;
64361;SDS011;50685;53.346;-6.296;2023-04-22T12:14:50;7.50;;;6.38;;
64361;SDS011;50685;53.346;-6.296;2023-04-22T12:17:15;7.35;;;5.30;;
64361;SDS011;50685;53.346;-6.296;2023-04-22T12:19:47;12.95;;;7.88;;
64361;SDS011;50685;53.346;-6.296;2023-04-22T12:22:27;12.25;;;7.68;;
64361;SDS011;50685;53.346;-6.296;2023-04-22T12:24:56;7.65;;;5.63;;
64361;SDS011;50685;53.346;-6.296;2023-04-22T12:27:22;11.80;;;7.05;;
64361;SDS011;50685;53.346;-6.296;2023-04-22T12:29:51;9.32;;;5.43;;
64361;SDS011;50685;53.346;-6.296;2023-04-22T12:32:20;3.83;;;3.45;;
64361;SDS011;50685;53.346;-6.296;2023-04-22T12:34:49;2.60;;;2.38;;
64361;SDS011;50685;53.346;-6.296;2023-04-22T12:37:15;2.85;;;2.35;;
64361;SDS011;50685;53.346;-6.296;2023-04-22T12:39:42;3.17;;;2.78;;
64361;SDS011;50685;53.346;-6.296;2023-04-22T12:42:08;6.00;;;3.40;;
64361;SDS011;50685;53.346;-6.296;2023-04-22T12:44:33;5.00;;;3.35;;
64361;SDS011;50685;53.346;-6.296;2023-04-22T12:47:00;6.05;;;4.50;;
64361;SDS011;50685;53.346;-6.296;2023-04-22T12:49:26;10.65;;;5.45;;
64361;SDS011;50685;53.346;-6.296;2023-04-22T12:51:51;7.57;;;5.63;;
64361;SDS011;50685;53.346;-6.296;2023-04-22T12:54:20;8.40;;;5.25;;
64361;SDS011;50685;53.346;-6.296;2023-04-22T12:56:46;7.68;;;5.05;;
64361;SDS011;50685;53.346;-6.296;2023-04-22T12:59:13;3.58;;;3.22;;
64361;SDS011;50685;53.346;-6.296;2023-04-22T13:01:38;4.13;;;3.60;;
64361;SDS011;50685;53.346;-6.296;2023-04-22T13:04:04;6.00;;;3.38;;
64361;SDS011;50685;53.346;-6.296;2023-04-22T13:06:30;5.20;;;3.97;;
64361;SDS011;50685;53.346;-6.296;2023-04-22T13:08:56;4.20;;;3.80;;
64361;SDS011;50685;53.346;-6.296;2023-04-22T13:11:23;7.28;;;4.55;;
64361;SDS011;50685;53.346;-6.296;2023-04-22T13:13:49;5.07;;;3.67;;
64361;SDS011;50685;53.346;-6.296;2023-04-22T13:16:17;4.78;;;3.85;;
64361;SDS011;50685;53.346;-6.296;2023-04-22T13:18:43;5.32;;;4.20;;
64361;SDS011;50685;53.346;-6.296;2023-04-22T13:21:09;12.85;;;4.90;;
64361;SDS011;50685;53.346;-6.296;2023-04-22T13:23:37;6.18;;;5.10;;
64361;SDS011;50685;53.346;-6.296;2023-04-22T13:26:04;6.30;;;5.70;;
64361;SDS011;50685;53.346;-6.296;2023-04-22T13:28:30;11.73;;;6.70;;
64361;SDS011;50685;53.346;-6.296;2023-04-22T13:30:55;9.70;;;5.35;;
64361;SDS011;50685;53.346;-6.296;2023-04-22T13:33:22;8.95;;;6.97;;
64361;SDS011;50685;53.346;-6.296;2023-04-22T13:35:48;10.10;;;6.95;;
64361;SDS011;50685;53.346;-6.296;2023-04-22T13:38:13;9.25;;;6.05;;
64361;SDS011;50685;53.346;-6.296;2023-04-22T13:40:39;9.50;;;7.13;;
64361;SDS011;50685;53.346;-6.296;2023-04-22T13:43:04;10.60;;;7.35;;
64361;SDS011;50685;53.346;-6.296;2023-04-22T13:45:35;12.80;;;7.60;;
64361;SDS011;50685;53.346;-6.296;2023-04-22T13:48:01;10.65;;;7.00;;
64361;SDS011;50685;53.346;-6.296;2023-04-22T13:50:27;8.88;;;6.43;;
64361;SDS011;50685;53.346;-6.296;2023-04-22T13:52:53;6.78;;;5.47;;
64361;SDS011;50685;53.346;-6.296;2023-04-22T13:55:18;8.52;;;5.50;;
64361;SDS011;50685;53.346;-6.296;2023-04-22T13:57:44;7.43;;;6.15;;
64361;SDS011;50685;53.346;-6.296;2023-04-22T14:00:10;8.70;;;6.15;;
64361;SDS011;50685;53.346;-6.296;2023-04-22T14:02:36;9.50;;;6.43;;
64361;SDS011;50685;53.346;-6.296;2023-04-22T14:05:01;9.98;;;6.30;;
64361;SDS011;50685;53.346;-6.296;2023-04-22T14:07:29;6.70;;;5.63;;
64361;SDS011;50685;53.346;-6.296;2023-04-22T14:09:54;7.88;;;5.80;;
64361;SDS011;50685;53.346;-6.296;2023-04-22T14:12:20;7.00;;;5.78;;
64361;SDS011;50685;53.346;-6.296;2023-04-22T14:14:45;9.82;;;5.00;;
64361;SDS011;50685;53.346;-6.296;2023-04-22T14:17:11;7.05;;;5.55;;
64361;SDS011;50685;53.346;-6.296;2023-04-22T14:19:36;7.53;;;5.55;;
64361;SDS011;50685;53.346;-6.296;2023-04-22T14:22:03;10.10;;;6.03;;
64361;SDS011;50685;53.346;-6.296;2023-04-22T14:24:29;8.57;;;5.00;;
64361;SDS011;50685;53.346;-6.296;2023-04-22T14:26:55;7.65;;;4.80;;
64361;SDS011;50685;53.346;-6.296;2023-04-22T14:29:25;7.43;;;5.50;;
64361;SDS011;50685;53.346;-6.296;2023-04-22T14:31:53;5.82;;;5.15;;